Terminal Aerodrome Forecast
Issued by NWS Boston, MA

Home | Current Version | Previous Version | Text Only | Print | Product List | Glossary On
Versions: 1 2 3 4 5 6 7 8 9 10 11 12 13 14 15 16 17 18 19 20 21 22
000
FTUS41 KBOX 190534
TAFPVD
TAF
KPVD 190534Z 1906/2006 22004KT P6SM BKN200
     FM191200 29005KT P6SM FEW080
     FM191400 31009G16KT P6SM FEW250
     FM192000 33013G21KT P6SM FEW050 SCT060
     FM200000 36009KT P6SM SKC=

USA.gov is the U.S. government's official web portal to all federal, state and local government web resources and services.